Time;durP1;ratioP1;P1;durP2;ratioP2;P2;SDS_P1;SDS_P2;PMS_P1;PMS_P2;Temp;Humidity;BMP_temperature;BMP_pressure;BME280_temperature;BME280_humidity;BME280_pressure;Samples;Min_cycle;Max_cycle;Signal;HPM_P1;HPM_P2
2021/12/31 00:01:49;;;;;;;9.68;6.35;;;;;;;20.35;nan;100780.63;20379444;28;101459;-60
2021/12/31 00:11:51;;;;;;;8.27;6.03;;;;;;;20.33;nan;100782.56;20378873;28;101655;-60
2021/12/31 00:21:52;;;;;;;8.05;6.15;;;;;;;20.30;nan;100794.94;20378285;28;99704;-61
2021/12/31 00:31:52;;;;;;;9.35;6.18;;;;;;;20.28;nan;100788.94;20376162;28;100220;-60
2021/12/31 00:41:53;;;;;;;7.63;5.53;;;;;;;20.28;nan;100791.56;20407287;28;99099;-60
2021/12/31 00:51:54;;;;;;;8.60;5.65;;;;;;;20.26;nan;100790.84;20409199;28;98597;-60
2021/12/31 01:01:56;;;;;;;7.43;5.68;;;;;;;20.25;nan;100794.44;20402377;28;101163;-60
2021/12/31 01:11:59;;;;;;;8.52;5.60;;;;;;;20.23;nan;100801.56;20417442;28;100270;-60
2021/12/31 01:22:00;;;;;;;7.93;5.60;;;;;;;20.24;nan;100803.25;20386171;28;99119;-60
2021/12/31 01:32:01;;;;;;;9.15;5.63;;;;;;;20.23;nan;100803.38;20387051;28;97804;-60
2021/12/31 01:42:03;;;;;;;7.18;5.25;;;;;;;20.20;nan;100793.91;20434543;28;100977;-60
2021/12/31 01:52:05;;;;;;;8.45;5.55;;;;;;;20.19;nan;100791.34;20401325;28;103436;-60
2021/12/31 02:02:07;;;;;;;7.65;5.35;;;;;;;20.17;nan;100801.97;20400178;28;101680;-60
2021/12/31 02:12:08;;;;;;;8.10;5.57;;;;;;;20.17;nan;100807.22;20396862;28;101931;-60
2021/12/31 02:22:09;;;;;;;8.55;5.63;;;;;;;20.15;nan;100794.19;20389724;28;102669;-60
2021/12/31 02:32:10;;;;;;;7.28;5.57;;;;;;;20.14;nan;100776.72;20399334;28;100768;-60
2021/12/31 02:42:11;;;;;;;6.78;5.20;;;;;;;20.13;nan;100780.31;20403861;28;103353;-60
2021/12/31 02:52:13;;;;;;;8.27;5.60;;;;;;;20.12;nan;100767.28;20463084;28;98380;-60
2021/12/31 03:02:20;;;;;;;8.23;5.53;;;;;;;20.10;nan;100762.13;20426586;28;106972;-59
2021/12/31 03:12:20;;;;;;;8.05;5.18;;;;;;;20.09;nan;100765.69;20382636;28;98473;-60
2021/12/31 03:22:26;;;;;;;6.70;4.88;;;;;;;20.09;nan;100768.31;20377627;28;100718;-60
2021/12/31 03:32:26;;;;;;;7.35;5.43;;;;;;;20.07;nan;100754.44;20389001;28;98722;-60
2021/12/31 03:42:27;;;;;;;6.93;4.88;;;;;;;20.06;nan;100763.25;20383486;28;101686;-60
2021/12/31 03:52:28;;;;;;;7.40;4.70;;;;;;;20.04;nan;100767.75;20384820;28;99342;-60
2021/12/31 04:02:31;;;;;;;7.53;4.95;;;;;;;20.03;nan;100752.97;20381170;28;101776;-60
2021/12/31 04:12:31;;;;;;;5.80;4.63;;;;;;;20.03;nan;100755.59;20411862;28;99086;-60
2021/12/31 04:22:32;;;;;;;6.30;4.70;;;;;;;20.02;nan;100756.53;20411990;28;100155;-60
2021/12/31 04:32:34;;;;;;;7.10;5.22;;;;;;;19.99;nan;100743.56;20403081;28;102624;-60
2021/12/31 04:42:34;;;;;;;7.78;5.10;;;;;;;20.00;nan;100750.53;20392296;28;101166;-60
2021/12/31 04:52:36;;;;;;;6.00;4.90;;;;;;;19.97;nan;100756.00;20415277;28;100430;-60
2021/12/31 05:02:36;;;;;;;7.03;4.78;;;;;;;19.95;nan;100758.69;20395991;27;102348;-59
2021/12/31 05:12:38;;;;;;;6.35;4.85;;;;;;;19.96;nan;100762.19;20420527;27;99597;-60
2021/12/31 05:22:38;;;;;;;8.57;5.78;;;;;;;20.09;nan;100757.81;20403151;28;99233;-60
2021/12/31 05:32:42;;;;;;;8.13;5.97;;;;;;;20.22;nan;100754.34;20387734;28;101310;-60
2021/12/31 05:42:43;;;;;;;8.20;5.07;;;;;;;20.38;nan;100759.41;20415352;28;99484;-59
2021/12/31 05:52:43;;;;;;;8.65;5.38;;;;;;;20.45;nan;100761.50;20407871;28;99497;-60
2021/12/31 06:02:44;;;;;;;6.93;5.28;;;;;;;20.51;nan;100762.88;20407177;28;97694;-60
2021/12/31 06:12:45;;;;;;;7.90;5.05;;;;;;;20.59;nan;100765.84;20409182;28;101744;-60
2021/12/31 06:22:46;;;;;;;5.55;4.15;;;;;;;20.66;nan;100768.03;20423584;28;99659;-60
2021/12/31 06:32:46;;;;;;;6.35;4.50;;;;;;;20.74;nan;100789.44;20403658;28;101922;-59
2021/12/31 06:42:47;;;;;;;6.72;4.63;;;;;;;20.83;nan;100809.84;20404084;28;99852;-59
2021/12/31 06:52:49;;;;;;;5.72;4.50;;;;;;;20.88;nan;100796.38;20408224;28;101949;-60
2021/12/31 07:02:49;;;;;;;9.02;6.43;;;;;;;20.74;nan;100807.88;20410330;28;99972;-59
2021/12/31 07:12:55;;;;;;;8.98;5.32;;;;;;;20.88;nan;100818.25;20390121;28;99211;-60
2021/12/31 07:22:56;;;;;;;10.07;4.55;;;;;;;21.00;nan;100828.91;20394943;28;99323;-60
2021/12/31 07:32:57;;;;;;;10.88;4.30;;;;;;;21.19;nan;100833.69;20414288;28;101569;-61
2021/12/31 07:42:57;;;;;;;8.82;4.70;;;;;;;21.33;nan;100843.28;20420618;28;99077;-61
2021/12/31 07:52:58;;;;;;;8.35;4.57;;;;;;;21.45;nan;100858.22;20430071;28;99090;-61
2021/12/31 08:02:59;;;;;;;8.63;4.40;;;;;;;21.56;nan;100860.09;20421624;28;99667;-61
2021/12/31 08:13:02;;;;;;;9.55;5.30;;;;;;;21.54;nan;100856.72;20413393;28;101765;-61
2021/12/31 08:23:09;;;;;;;7.28;4.68;;;;;;;21.81;nan;100851.25;20400050;28;100937;-61
2021/12/31 08:33:10;;;;;;;11.18;5.00;;;;;;;22.03;nan;100861.09;20416134;28;102549;-61
2021/12/31 08:43:11;;;;;;;8.80;4.70;;;;;;;22.25;nan;100848.94;20421995;28;98331;-60
2021/12/31 08:53:12;;;;;;;9.65;4.60;;;;;;;22.49;nan;100861.28;20413198;28;97947;-61
2021/12/31 09:03:13;;;;;;;9.40;5.70;;;;;;;22.67;nan;100859.88;20409021;28;98979;-60
2021/12/31 09:13:14;;;;;;;13.27;8.95;;;;;;;22.84;nan;100860.41;20412137;28;98081;-61
2021/12/31 09:23:15;;;;;;;12.98;9.23;;;;;;;23.00;nan;100867.97;20409224;28;98813;-61
2021/12/31 09:33:15;;;;;;;18.65;9.88;;;;;;;23.18;nan;100863.91;20403206;28;99763;-61
2021/12/31 09:43:19;;;;;;;12.33;9.50;;;;;;;23.34;nan;100850.34;20408922;28;102591;-60
2021/12/31 09:53:23;;;;;;;8.68;4.28;;;;;;;22.99;nan;100839.88;20403020;28;98976;-61
2021/12/31 10:03:26;;;;;;;6.28;4.03;;;;;;;23.00;nan;100842.38;20403191;28;99437;-61
2021/12/31 10:13:27;;;;;;;8.48;3.60;;;;;;;23.19;nan;100827.75;20410599;28;101520;-61
2021/12/31 10:23:30;;;;;;;6.18;3.30;;;;;;;23.30;nan;100829.56;20398313;28;99835;-60
2021/12/31 10:33:42;;;;;;;10.43;3.40;;;;;;;23.42;nan;100818.00;20397305;28;98845;-61
2021/12/31 10:43:43;;;;;;;9.25;2.97;;;;;;;23.45;nan;100812.47;20399523;28;101216;-61
2021/12/31 10:53:51;;;;;;;9.75;4.13;;;;;;;23.56;nan;100814.25;20422260;28;99825;-59
2021/12/31 11:03:52;;;;;;;9.75;4.95;;;;;;;23.59;nan;100808.72;20442108;28;103527;-59
2021/12/31 11:13:53;;;;;;;9.65;5.25;;;;;;;23.57;nan;100793.94;20385713;28;100797;-60
2021/12/31 11:23:53;;;;;;;8.05;3.65;;;;;;;23.40;nan;100806.72;20398903;28;98644;-62
2021/12/31 11:33:56;;;;;;;11.07;4.97;;;;;;;23.48;nan;100788.44;20396158;28;98311;-61
2021/12/31 11:44:07;;;;;;;17.83;5.60;;;;;;;23.69;nan;100770.97;20402830;28;99098;-61
2021/12/31 11:54:07;;;;;;;8.85;4.40;;;;;;;23.74;nan;100771.41;20410697;28;101141;-61
2021/12/31 12:04:26;;;;;;;7.30;3.60;;;;;;;23.79;nan;100775.38;20390163;28;103938;-61
2021/12/31 12:14:47;;;;;;;19.20;4.75;;;;;;;24.11;nan;100771.88;20402281;28;103213;-60
2021/12/31 12:24:49;;;;;;;10.77;3.90;;;;;;;24.23;nan;100772.66;20378508;28;99337;-61
2021/12/31 12:34:50;;;;;;;10.80;3.97;;;;;;;24.18;nan;100771.34;20397177;28;101576;-61
2021/12/31 12:45:05;;;;;;;8.43;3.13;;;;;;;24.22;nan;100757.75;20443329;28;99201;-61
2021/12/31 12:55:14;;;;;;;3.38;2.10;;;;;;;24.00;nan;100755.22;20416117;28;98841;-61
2021/12/31 13:05:15;;;;;;;4.55;2.10;;;;;;;24.03;nan;100750.50;20424720;28;102052;-60
2021/12/31 13:15:15;;;;;;;5.60;2.77;;;;;;;24.06;nan;100737.03;20433857;28;101620;-61
2021/12/31 13:25:16;;;;;;;3.67;2.10;;;;;;;24.11;nan;100721.59;20424883;28;97825;-60
2021/12/31 13:35:23;;;;;;;6.27;2.17;;;;;;;24.18;nan;100715.78;20402040;28;99344;-60
2021/12/31 13:45:24;;;;;;;4.95;1.98;;;;;;;24.06;nan;100717.66;20409583;28;98774;-61
2021/12/31 13:55:28;;;;;;;2.27;1.87;;;;;;;23.98;nan;100711.22;20435509;28;98358;-61
2021/12/31 14:05:28;;;;;;;3.45;2.05;;;;;;;23.93;nan;100704.66;20413702;28;97907;-61
2021/12/31 14:15:34;;;;;;;3.20;2.10;;;;;;;23.91;nan;100703.91;20442681;27;98503;-60
2021/12/31 14:25:38;;;;;;;3.35;1.80;;;;;;;23.88;nan;100704.19;20468827;28;101164;-61
2021/12/31 14:35:44;;;;;;;5.05;2.20;;;;;;;23.81;nan;100715.28;20426251;28;99847;-61
2021/12/31 14:45:45;;;;;;;4.07;1.90;;;;;;;23.78;nan;100706.75;20386197;28;103444;-62
2021/12/31 14:55:47;;;;;;;5.38;2.40;;;;;;;23.85;nan;100721.09;20400792;28;101578;-61
2021/12/31 15:05:48;;;;;;;3.83;2.17;;;;;;;23.84;nan;100711.53;20386718;28;99905;-61
2021/12/31 15:15:48;;;;;;;9.38;2.53;;;;;;;23.91;nan;100701.25;20401267;28;100225;-62
2021/12/31 15:25:49;;;;;;;11.60;2.47;;;;;;;23.98;nan;100711.22;20387042;28;101657;-61
2021/12/31 15:35:51;;;;;;;6.60;2.30;;;;;;;23.96;nan;100705.22;20384739;28;102502;-61
2021/12/31 15:45:52;;;;;;;5.40;2.10;;;;;;;23.98;nan;100695.34;20378391;28;103672;-58
2021/12/31 15:55:54;;;;;;;8.17;2.70;;;;;;;24.02;nan;100698.56;20396017;28;98370;-59
2021/12/31 16:05:55;;;;;;;9.40;2.37;;;;;;;24.02;nan;100697.75;20466193;28;101482;-60
2021/12/31 16:15:57;;;;;;;6.18;2.25;;;;;;;24.01;nan;100712.78;20430233;28;101322;-60
2021/12/31 16:25:58;;;;;;;6.38;2.40;;;;;;;24.04;nan;100711.69;20457006;28;97484;-61
2021/12/31 16:36:00;;;;;;;5.05;2.13;;;;;;;24.02;nan;100719.72;20421363;28;98937;-62
2021/12/31 16:46:01;;;;;;;14.00;2.75;;;;;;;23.52;nan;100728.22;20389021;28;99668;-60
2021/12/31 16:56:02;;;;;;;4.30;2.85;;;;;;;23.25;nan;100726.03;20376165;28;102056;-60
2021/12/31 17:06:02;;;;;;;6.57;2.80;;;;;;;23.06;nan;100719.59;20380940;28;102198;-59
2021/12/31 17:16:03;;;;;;;5.17;2.30;;;;;;;23.16;nan;100719.69;20379560;28;100419;-60
2021/12/31 17:26:04;;;;;;;7.22;2.72;;;;;;;23.23;nan;100712.97;20369705;28;102585;-60
2021/12/31 17:36:04;;;;;;;23.77;3.60;;;;;;;23.20;nan;100715.03;20380939;28;102572;-58
2021/12/31 17:46:07;;;;;;;15.15;3.03;;;;;;;23.25;nan;100703.09;20399355;28;99628;-60
2021/12/31 17:56:07;;;;;;;16.97;3.73;;;;;;;23.27;nan;100693.25;20375630;28;101305;-60
2021/12/31 18:06:08;;;;;;;32.88;3.90;;;;;;;23.29;nan;100699.25;20415335;28;101150;-60
2021/12/31 18:16:12;;;;;;;30.05;4.13;;;;;;;23.33;nan;100691.94;20469982;28;102017;-60
2021/12/31 18:26:13;;;;;;;27.33;3.78;;;;;;;23.41;nan;100672.78;20471310;28;98439;-58
2021/12/31 18:36:14;;;;;;;21.73;3.28;;;;;;;23.45;nan;100666.31;20469572;28;99667;-61
2021/12/31 18:46:53;;;;;;;14.77;2.90;;;;;;;23.54;nan;100667.34;20476225;28;102167;-59
2021/12/31 18:56:42;;;;;;;12.65;3.30;;;;;;;23.53;nan;100658.53;20474848;28;101095;-60
2021/12/31 19:06:44;;;;;;;23.40;3.27;;;;;;;23.55;nan;100653.97;20470880;28;99726;-60
2021/12/31 19:16:44;;;;;;;11.00;2.93;;;;;;;23.55;nan;100643.41;20474423;28;101605;-59
2021/12/31 19:26:45;;;;;;;23.13;3.83;;;;;;;23.49;nan;100639.47;20471436;28;100509;-60
2021/12/31 19:36:46;;;;;;;17.42;2.97;;;;;;;23.53;nan;100628.66;20471257;28;99133;-61
2021/12/31 19:46:47;;;;;;;10.43;3.30;;;;;;;23.55;nan;100635.47;20464764;28;99819;-61
2021/12/31 19:56:48;;;;;;;14.80;3.10;;;;;;;23.56;nan;100646.88;20469799;28;102170;-61
2021/12/31 20:06:48;;;;;;;23.83;3.40;;;;;;;23.60;nan;100650.97;20467525;28;101809;-63
2021/12/31 20:16:50;;;;;;;9.40;3.63;;;;;;;23.61;nan;100665.84;20468126;28;103722;-62
2021/12/31 20:26:56;;;;;;;12.50;3.85;;;;;;;23.65;nan;100665.44;20465361;28;101742;-62
2021/12/31 20:36:56;;;;;;;12.35;4.03;;;;;;;23.68;nan;100645.88;20472098;28;102819;-62
2021/12/31 20:46:57;;;;;;;20.23;6.88;;;;;;;23.48;nan;100656.28;20473441;28;103557;-61
2021/12/31 20:56:59;;;;;;;45.15;11.93;;;;;;;23.53;nan;100658.53;20472450;28;101835;-61
2021/12/31 21:06:59;;;;;;;40.73;13.10;;;;;;;23.47;nan;100674.91;20497403;28;98237;-62
2021/12/31 21:17:00;;;;;;;29.42;12.38;;;;;;;23.49;nan;100662.44;20501298;28;99031;-62
2021/12/31 21:27:02;;;;;;;36.95;12.95;;;;;;;23.31;nan;100647.13;20498593;28;99098;-62
2021/12/31 21:37:02;;;;;;;30.57;12.90;;;;;;;23.36;nan;100628.25;20493577;28;100299;-63
2021/12/31 21:47:06;;;;;;;39.90;13.27;;;;;;;23.53;nan;100618.06;20489419;28;99632;-62
2021/12/31 21:57:07;;;;;;;33.78;12.68;;;;;;;23.60;nan;100621.88;20489540;28;101604;-62
2021/12/31 22:07:08;;;;;;;46.28;13.52;;;;;;;23.76;nan;100640.75;20488804;28;100364;-61
2021/12/31 22:17:09;;;;;;;31.67;12.90;;;;;;;23.80;nan;100601.66;20491054;28;101480;-62
2021/12/31 22:27:11;;;;;;;25.88;12.88;;;;;;;23.86;nan;100619.66;20489918;28;102808;-61
2021/12/31 22:37:12;;;;;;;29.35;13.50;;;;;;;24.00;nan;100630.91;20489368;28;98339;-61
2021/12/31 22:47:13;;;;;;;34.30;12.63;;;;;;;23.95;nan;100634.78;20488047;28;98116;-62
2021/12/31 22:57:15;;;;;;;34.77;14.17;;;;;;;23.91;nan;100654.50;20495124;28;102953;-62
2021/12/31 23:07:19;;;;;;;25.07;12.83;;;;;;;23.99;nan;100632.72;20493714;28;102356;-63
2021/12/31 23:17:20;;;;;;;26.65;11.85;;;;;;;24.00;nan;100620.31;20482678;28;100816;-63
2021/12/31 23:27:22;;;;;;;25.05;14.95;;;;;;;23.88;nan;100572.78;20480294;28;100292;-62
2021/12/31 23:37:24;;;;;;;;;;;;;;;23.82;nan;100579.41;20484791;28;101998;-60
2021/12/31 23:47:26;;;;;;;40.70;17.43;;;;;;;23.33;nan;100575.66;20476153;28;98884;-61
2021/12/31 23:57:28;;;;;;;41.38;16.77;;;;;;;23.37;nan;100566.50;20481297;27;102312;-65
